METRO LLNV-LLNV

Flight info

Callsign METRO
Flight time 1h 7m
Altitude 14000
Route MERHAV 8
Aircraft B703/H-V/N

Departure

Time 2026-04-20 18:08
Airport Nevatim Air Base (LLNV)

Arrival

Time 2026-04-20 19:16
Airport Nevatim Air Base (LLNV)
Time Latitude Longitude Altitude Speed Heading
2026-04-20 17:49 31.18957 35.03890 1403 ft 0 kts 346°
2026-04-20 17:54 31.18958 35.03890 1403 ft 1 kts 346°
2026-04-20 17:54 31.18994 35.03878 1412 ft 0 kts 347°
2026-04-20 17:54 31.18997 35.03887 1410 ft 1 kts 53°
2026-04-20 17:55 31.19018 35.03917 1410 ft 8 kts 60°
2026-04-20 17:55 31.19038 35.03993 1412 ft 14 kts 75°
2026-04-20 17:55 31.19074 35.04134 1406 ft 20 kts 72°
2026-04-20 17:55 31.19101 35.04204 1411 ft 3 kts 33°
2026-04-20 17:56 31.19159 35.04210 1408 ft 17 kts 352°
2026-04-20 17:56 31.19263 35.04196 1407 ft 11 kts
2026-04-20 17:56 31.19289 35.04204 1402 ft 0 kts 18°
2026-04-20 18:07 31.19290 35.04204 1396 ft 2 kts 18°
2026-04-20 18:07 31.19343 35.04179 1401 ft 15 kts 324°
2026-04-20 18:07 31.19415 35.04119 1403 ft 1 kts 282°
2026-04-20 18:07 31.19414 35.03994 1397 ft 49 kts 258°
2026-04-20 18:08 31.19238 35.03110 1376 ft 171 kts 259°
2026-04-20 18:08 31.18913 35.01443 1983 ft 244 kts 260°
2026-04-20 18:08 31.18507 34.99265 3036 ft 304 kts 260°
2026-04-20 18:08 31.17832 34.96967 3906 ft 293 kts 236°
2026-04-20 18:09 31.16100 34.95877 4459 ft 304 kts 189°
2026-04-20 18:09 31.14075 34.96709 4386 ft 330 kts 133°
2026-04-20 18:09 31.13566 34.99202 4868 ft 329 kts 81°
2026-04-20 18:09 31.13861 35.01868 5299 ft 333 kts 80°
2026-04-20 18:10 31.14240 35.04552 5747 ft 336 kts 78°
2026-04-20 18:10 31.14678 35.07225 6366 ft 332 kts 77°
2026-04-20 18:10 31.15156 35.09842 6990 ft 328 kts 75°
2026-04-20 18:10 31.16010 35.12250 7641 ft 318 kts 51°
2026-04-20 18:11 31.17816 35.13536 8158 ft 308 kts
2026-04-20 18:11 31.19930 35.13858 8715 ft 310 kts
2026-04-20 18:11 31.22161 35.14062 9320 ft 333 kts
2026-04-20 18:11 31.24572 35.14181 9915 ft 356 kts 359°
2026-04-20 18:12 31.27000 35.14248 10638 ft 345 kts 358°
2026-04-20 18:12 31.29346 35.14452 10621 ft 342 kts
2026-04-20 18:12 31.31759 35.15169 10631 ft 360 kts 12°
2026-04-20 18:12 31.34050 35.16155 10494 ft 360 kts 27°
2026-04-20 18:13 31.35898 35.18126 10311 ft 362 kts 53°
2026-04-20 18:13 31.36845 35.20842 10158 ft 364 kts 80°
2026-04-20 18:13 31.36701 35.23763 10071 ft 361 kts 107°
2026-04-20 18:13 31.35495 35.26310 10033 ft 357 kts 134°
2026-04-20 18:14 31.33498 35.27953 10009 ft 352 kts 160°
2026-04-20 18:14 31.31118 35.28444 10031 ft 346 kts 181°
2026-04-20 18:14 31.28712 35.28434 10036 ft 346 kts 184°
2026-04-20 18:14 31.26299 35.28321 10008 ft 346 kts 188°
2026-04-20 18:15 31.23991 35.27618 10010 ft 341 kts 202°
2026-04-20 18:15 31.21771 35.26619 10002 ft 340 kts 204°
2026-04-20 18:15 31.19584 35.25549 9993 ft 341 kts 205°
2026-04-20 18:15 31.17411 35.24446 9994 ft 341 kts 206°
2026-04-20 18:16 31.15266 35.23340 9999 ft 341 kts 206°
2026-04-20 18:16 31.13093 35.22219 9988 ft 341 kts 206°
2026-04-20 18:16 31.10922 35.21118 10186 ft 338 kts 206°
2026-04-20 18:16 31.08947 35.19664 10393 ft 337 kts 227°
2026-04-20 18:17 31.07768 35.17353 10624 ft 334 kts 254°
2026-04-20 18:17 31.07689 35.14667 10871 ft 335 kts 281°
2026-04-20 18:17 31.08736 35.12253 11117 ft 340 kts 309°
2026-04-20 18:17 31.09959 35.11087 11277 ft 345 kts 327°
2026-04-20 18:18 31.12272 35.10320 11526 ft 354 kts 354°
2026-04-20 18:18 31.14743 35.10567 11813 ft 359 kts
2026-04-20 18:18 31.17222 35.11035 12076 ft 362 kts
2026-04-20 18:18 31.20504 35.11742 12726 ft 363 kts
2026-04-20 18:19 31.22189 35.12128 13080 ft 366 kts
2026-04-20 18:19 31.24699 35.12716 13556 ft 370 kts
2026-04-20 18:19 31.27242 35.13324 13814 ft 374 kts
2026-04-20 18:19 31.29802 35.13944 13913 ft 376 kts
2026-04-20 18:20 31.32325 35.14551 13951 ft 376 kts
2026-04-20 18:20 31.34917 35.15170 13976 ft 375 kts
2026-04-20 18:20 31.37443 35.15772 13987 ft 375 kts
2026-04-20 18:20 31.39998 35.16377 13992 ft 374 kts
2026-04-20 18:21 31.42551 35.16976 13990 ft 374 kts
2026-04-20 18:21 31.45100 35.17562 14001 ft 373 kts
2026-04-20 18:21 31.47644 35.18192 14003 ft 374 kts
2026-04-20 18:21 31.50153 35.19040 13977 ft 379 kts 22°
2026-04-20 18:22 31.52179 35.21033 13940 ft 389 kts 52°
2026-04-20 18:22 31.53141 35.23976 13917 ft 392 kts 83°
2026-04-20 18:22 31.52775 35.27127 13922 ft 393 kts 113°
2026-04-20 18:22 31.51184 35.29667 13932 ft 387 kts 143°
2026-04-20 18:23 31.48801 35.30955 13962 ft 376 kts 174°
2026-04-20 18:23 31.46232 35.30848 14000 ft 367 kts 193°
2026-04-20 18:23 31.43762 35.30139 14009 ft 365 kts 200°
2026-04-20 18:23 31.41333 35.29263 14001 ft 365 kts 201°
2026-04-20 18:24 31.38915 35.28341 13997 ft 364 kts 202°
2026-04-20 18:24 31.36511 35.27403 13997 ft 363 kts 202°
2026-04-20 18:24 31.34118 35.26460 13995 ft 363 kts 202°
2026-04-20 18:24 31.31755 35.25531 13994 ft 363 kts 202°
2026-04-20 18:25 31.29358 35.24589 13986 ft 363 kts 202°
2026-04-20 18:25 31.26971 35.23653 13997 ft 363 kts 202°
2026-04-20 18:25 31.24569 35.22717 13998 ft 364 kts 202°
2026-04-20 18:25 31.22161 35.21780 13994 ft 364 kts 202°
2026-04-20 18:26 31.19765 35.20850 14000 ft 363 kts 202°
2026-04-20 18:26 31.17370 35.19924 14002 ft 363 kts 202°
2026-04-20 18:26 31.14967 35.18999 13996 ft 363 kts 202°
2026-04-20 18:26 31.12571 35.18076 13992 ft 362 kts 202°
2026-04-20 18:27 31.10173 35.17153 13997 ft 363 kts 202°
2026-04-20 18:27 31.07776 35.16232 13991 ft 362 kts 202°
2026-04-20 18:27 31.05379 35.15312 13992 ft 363 kts 202°
2026-04-20 18:27 31.03037 35.14334 13983 ft 359 kts 210°
2026-04-20 18:28 31.01204 35.12433 13936 ft 348 kts 240°
2026-04-20 18:28 31.00602 35.09766 13915 ft 344 kts 272°
2026-04-20 18:28 31.01375 35.07188 13919 ft 349 kts 304°
2026-04-20 18:28 31.03309 35.05480 13927 ft 360 kts 336°
2026-04-20 18:29 31.05823 35.05240 13964 ft 373 kts
2026-04-20 18:29 31.08339 35.06041 14003 ft 377 kts 14°
2026-04-20 18:29 31.10848 35.07002 14001 ft 378 kts 15°
2026-04-20 18:29 31.13331 35.08001 14006 ft 378 kts 15°
2026-04-20 18:30 31.15810 35.09020 13998 ft 378 kts 15°
2026-04-20 18:30 31.18287 35.10046 13998 ft 378 kts 15°
2026-04-20 18:30 31.20766 35.11074 13997 ft 378 kts 15°
2026-04-20 18:30 31.23246 35.12106 13997 ft 377 kts 15°
2026-04-20 18:31 31.25686 35.13120 13997 ft 377 kts 15°
2026-04-20 18:31 31.28167 35.14152 14000 ft 377 kts 15°
2026-04-20 18:31 31.30643 35.15178 14004 ft 377 kts 15°
2026-04-20 18:31 31.33119 35.16200 13997 ft 377 kts 15°
2026-04-20 18:32 31.35597 35.17220 13999 ft 377 kts 15°
2026-04-20 18:32 31.38073 35.18235 14004 ft 377 kts 15°
2026-04-20 18:32 31.40550 35.19244 14000 ft 376 kts 15°
2026-04-20 18:32 31.42856 35.20183 14007 ft 376 kts 15°
2026-04-20 18:33 31.45336 35.21371 13975 ft 381 kts 28°
2026-04-20 18:33 31.47196 35.23601 13938 ft 391 kts 58°
2026-04-20 18:33 31.47916 35.26649 13924 ft 394 kts 88°
2026-04-20 18:33 31.47307 35.29746 13919 ft 393 kts 118°
2026-04-20 18:34 31.45526 35.32103 13923 ft 386 kts 149°
2026-04-20 18:34 31.43058 35.33122 13954 ft 374 kts 179°
2026-04-20 18:34 31.40473 35.33078 14002 ft 371 kts 187°
2026-04-20 18:34 31.37906 35.32865 14000 ft 369 kts 189°
2026-04-20 18:35 31.35334 35.32607 14004 ft 371 kts 189°
2026-04-20 18:35 31.32800 35.32337 13994 ft 370 kts 189°
2026-04-20 18:35 31.30234 35.32062 13996 ft 369 kts 189°
2026-04-20 18:35 31.27671 35.31787 13995 ft 370 kts 189°
2026-04-20 18:36 31.25103 35.31513 13999 ft 370 kts 189°
2026-04-20 18:36 31.22536 35.31241 13998 ft 369 kts 189°
2026-04-20 18:36 31.19973 35.30978 13991 ft 369 kts 189°
2026-04-20 18:36 31.17416 35.30717 14000 ft 369 kts 189°
2026-04-20 18:37 31.14886 35.30460 13995 ft 370 kts 189°
2026-04-20 18:37 31.12428 35.29745 13962 ft 360 kts 210°
2026-04-20 18:37 31.10543 35.27936 13961 ft 348 kts 236°
2026-04-20 18:37 31.09617 35.25380 13984 ft 343 kts 262°
2026-04-20 18:38 31.09837 35.22632 13994 ft 345 kts 288°
2026-04-20 18:38 31.11100 35.20237 14012 ft 348 kts 306°
2026-04-20 18:38 31.12687 35.18087 14014 ft 349 kts 309°
2026-04-20 18:38 31.14324 35.15996 14006 ft 349 kts 310°
2026-04-20 18:39 31.15983 35.13928 14004 ft 350 kts 310°
2026-04-20 18:39 31.17664 35.11868 14003 ft 350 kts 313°
2026-04-20 18:39 31.19695 35.10342 13989 ft 360 kts 336°
2026-04-20 18:39 31.22202 35.09993 14001 ft 370 kts 359°
2026-04-20 18:40 31.24766 35.10332 14015 ft 372 kts
2026-04-20 18:40 31.27332 35.10787 14016 ft 373 kts
2026-04-20 18:40 31.29893 35.11283 14008 ft 373 kts
2026-04-20 18:40 31.32455 35.11792 14006 ft 373 kts
2026-04-20 18:41 31.35012 35.12303 14002 ft 372 kts
2026-04-20 18:41 31.37578 35.12815 14001 ft 373 kts
2026-04-20 18:41 31.40133 35.13323 14006 ft 373 kts
2026-04-20 18:41 31.42695 35.13826 14003 ft 371 kts
2026-04-20 18:42 31.45240 35.14325 14012 ft 372 kts
2026-04-20 18:42 31.47790 35.14829 14009 ft 373 kts
2026-04-20 18:42 31.50177 35.16048 13964 ft 383 kts 35°
2026-04-20 18:42 31.51779 35.18536 13938 ft 390 kts 66°
2026-04-20 18:43 31.52143 35.21666 13931 ft 391 kts 97°
2026-04-20 18:43 31.51223 35.24459 13911 ft 358 kts 129°
2026-04-20 18:43 31.49384 35.26143 13829 ft 323 kts 163°
2026-04-20 18:43 31.47234 35.26340 13454 ft 308 kts 198°
2026-04-20 18:44 31.45140 35.25268 13604 ft 348 kts 211°
2026-04-20 18:44 31.42968 35.23918 13874 ft 356 kts 212°
2026-04-20 18:44 31.40784 35.22514 13996 ft 357 kts 212°
2026-04-20 18:44 31.38612 35.21100 14031 ft 358 kts 213°
2026-04-20 18:45 31.36455 35.19693 14055 ft 359 kts 213°
2026-04-20 18:45 31.34274 35.18269 14025 ft 359 kts 213°
2026-04-20 18:45 31.32097 35.16849 14017 ft 358 kts 213°
2026-04-20 18:45 31.29915 35.15432 14011 ft 358 kts 212°
2026-04-20 18:46 31.27734 35.14020 14008 ft 359 kts 212°
2026-04-20 18:46 31.25592 35.12541 13993 ft 355 kts 220°
2026-04-20 18:46 31.24152 35.10292 13957 ft 347 kts 252°
2026-04-20 18:46 31.24038 35.07526 13961 ft 345 kts 284°
2026-04-20 18:47 31.25290 35.05153 13982 ft 352 kts 316°
2026-04-20 18:47 31.27526 35.03949 13991 ft 365 kts 348°
2026-04-20 18:47 31.30083 35.03961 14035 ft 370 kts
2026-04-20 18:47 31.32623 35.04242 14018 ft 373 kts
2026-04-20 18:48 31.35158 35.04985 14014 ft 375 kts 13°
2026-04-20 18:48 31.37650 35.05919 14012 ft 376 kts 15°
2026-04-20 18:48 31.40125 35.06905 14011 ft 376 kts 15°
2026-04-20 18:48 31.42602 35.07911 14006 ft 376 kts 16°
2026-04-20 18:49 31.45072 35.08916 14006 ft 376 kts 16°
2026-04-20 18:49 31.47545 35.09926 14007 ft 375 kts 16°
2026-04-20 18:49 31.49999 35.10931 14008 ft 375 kts 16°
2026-04-20 18:49 31.52471 35.11938 14014 ft 376 kts 16°
2026-04-20 18:50 31.54934 35.12950 14005 ft 375 kts 17°
2026-04-20 18:50 31.57156 35.14574 13966 ft 385 kts 44°
2026-04-20 18:50 31.58443 35.17318 13945 ft 390 kts 75°
2026-04-20 18:50 31.58410 35.20476 13939 ft 392 kts 106°
2026-04-20 18:51 31.57070 35.23197 13941 ft 387 kts 137°
2026-04-20 18:51 31.54797 35.24761 13967 ft 377 kts 168°
2026-04-20 18:51 31.52256 35.24890 14008 ft 369 kts 189°
2026-04-20 18:51 31.49707 35.24529 14013 ft 369 kts 192°
2026-04-20 18:52 31.47169 35.24094 14008 ft 368 kts 192°
2026-04-20 18:52 31.44638 35.23631 14009 ft 368 kts 193°
2026-04-20 18:52 31.42103 35.23160 14008 ft 368 kts 193°
2026-04-20 18:52 31.39577 35.22688 14002 ft 367 kts 193°
2026-04-20 18:53 31.37049 35.22217 14001 ft 368 kts 193°
2026-04-20 18:53 31.34520 35.21752 14003 ft 368 kts 193°
2026-04-20 18:53 31.31983 35.21291 14004 ft 368 kts 193°
2026-04-20 18:53 31.29459 35.20834 14004 ft 367 kts 193°
2026-04-20 18:54 31.26922 35.20384 14002 ft 368 kts 193°
2026-04-20 18:54 31.24393 35.19939 14005 ft 369 kts 193°
2026-04-20 18:54 31.21853 35.19497 14004 ft 368 kts 193°
2026-04-20 18:54 31.19349 35.19066 14003 ft 368 kts 193°
2026-04-20 18:55 31.16841 35.18403 13979 ft 361 kts 208°
2026-04-20 18:55 31.14995 35.16606 13942 ft 349 kts 239°
2026-04-20 18:55 31.14314 35.13963 13929 ft 343 kts 271°
2026-04-20 18:55 31.15039 35.11349 13926 ft 346 kts 303°
2026-04-20 18:56 31.16948 35.09624 13949 ft 358 kts 335°
2026-04-20 18:56 31.19479 35.09328 13998 ft 369 kts
2026-04-20 18:56 31.22014 35.09702 14013 ft 372 kts
2026-04-20 18:56 31.24582 35.10177 14012 ft 373 kts
2026-04-20 18:57 31.27144 35.10685 14015 ft 373 kts
2026-04-20 18:57 31.29713 35.11205 14009 ft 373 kts
2026-04-20 18:57 31.32232 35.11716 14010 ft 373 kts
2026-04-20 18:57 31.34822 35.12236 14009 ft 372 kts
2026-04-20 18:58 31.37345 35.12745 14011 ft 373 kts
2026-04-20 18:58 31.39902 35.13260 14014 ft 373 kts
2026-04-20 18:58 31.42459 35.13766 14008 ft 372 kts
2026-04-20 18:58 31.45007 35.14265 14015 ft 372 kts
2026-04-20 18:59 31.47564 35.14762 14013 ft 372 kts
2026-04-20 18:59 31.49991 35.15848 13973 ft 382 kts 32°
2026-04-20 18:59 31.51696 35.18229 13947 ft 390 kts 63°
2026-04-20 18:59 31.52199 35.21343 13940 ft 392 kts 93°
2026-04-20 19:00 31.51363 35.24353 13946 ft 391 kts 124°
2026-04-20 19:00 31.49406 35.26478 13968 ft 383 kts 155°
2026-04-20 19:00 31.46875 35.27172 13997 ft 371 kts 185°
2026-04-20 19:00 31.44328 35.26790 14016 ft 367 kts 193°
2026-04-20 19:01 31.41810 35.26246 14017 ft 368 kts 195°
2026-04-20 19:01 31.39333 35.25666 14012 ft 368 kts 195°
2026-04-20 19:01 31.36823 35.25060 14008 ft 367 kts 195°
2026-04-20 19:01 31.34329 35.24455 14012 ft 366 kts 195°
2026-04-20 19:02 31.31824 35.23845 14008 ft 368 kts 196°
2026-04-20 19:02 31.29323 35.23239 14007 ft 368 kts 196°
2026-04-20 19:02 31.26820 35.22636 14006 ft 367 kts 196°
2026-04-20 19:02 31.24439 35.22067 14009 ft 367 kts 195°
2026-04-20 19:03 31.21927 35.21473 14010 ft 368 kts 195°
2026-04-20 19:03 31.20271 35.21082 14008 ft 367 kts 195°
2026-04-20 19:03 31.17764 35.20497 14004 ft 366 kts 195°
2026-04-20 19:03 31.15304 35.19792 13985 ft 361 kts 206°
2026-04-20 19:04 31.13388 35.18020 13947 ft 350 kts 238°
2026-04-20 19:04 31.12656 35.15397 13935 ft 343 kts 270°
2026-04-20 19:04 31.13329 35.12762 13944 ft 346 kts 302°
2026-04-20 19:04 31.15195 35.10998 13981 ft 357 kts 334°
2026-04-20 19:05 31.17696 35.10651 14011 ft 370 kts
2026-04-20 19:05 31.20263 35.11023 14024 ft 372 kts
2026-04-20 19:05 31.22830 35.11498 14018 ft 373 kts
2026-04-20 19:05 31.25388 35.12010 14012 ft 373 kts
2026-04-20 19:06 31.27942 35.12532 14008 ft 373 kts
2026-04-20 19:06 31.30498 35.13057 14011 ft 373 kts
2026-04-20 19:06 31.33051 35.13576 14011 ft 373 kts
2026-04-20 19:06 31.35621 35.14095 13707 ft 376 kts
2026-04-20 19:07 31.38196 35.14608 12948 ft 374 kts
2026-04-20 19:07 31.40739 35.15150 12185 ft 368 kts
2026-04-20 19:07 31.43240 35.15692 11436 ft 363 kts
2026-04-20 19:07 31.45702 35.16221 10688 ft 357 kts
2026-04-20 19:08 31.48073 35.17041 9938 ft 357 kts 26°
2026-04-20 19:08 31.50415 35.21795 8510 ft 351 kts 89°
2026-04-20 19:08 31.49921 35.24543 7956 ft 348 kts 118°
2026-04-20 19:09 31.48287 35.26557 7426 ft 341 kts 151°
2026-04-20 19:09 31.46045 35.27215 6982 ft 332 kts 180°
2026-04-20 19:09 31.43765 35.27193 6596 ft 318 kts 184°
2026-04-20 19:09 31.41624 35.27101 6187 ft 298 kts 185°
2026-04-20 19:10 31.39610 35.26991 5758 ft 283 kts 185°
2026-04-20 19:10 31.37662 35.26870 5342 ft 279 kts 186°
2026-04-20 19:10 31.35766 35.26517 5029 ft 273 kts 195°
2026-04-20 19:10 31.33979 35.25982 4765 ft 258 kts 198°
2026-04-20 19:11 31.32272 35.25412 4497 ft 253 kts 199°
2026-04-20 19:11 31.30585 35.24837 4240 ft 252 kts 199°
2026-04-20 19:11 31.28916 35.24259 4062 ft 244 kts 199°
2026-04-20 19:11 31.27331 35.23709 3971 ft 234 kts 199°
2026-04-20 19:12 31.25786 35.23172 3912 ft 229 kts 204°
2026-04-20 19:12 31.24578 35.22033 3826 ft 223 kts 237°
2026-04-20 19:12 31.23693 35.20558 3758 ft 222 kts 237°
2026-04-20 19:12 31.22802 35.19135 3595 ft 214 kts 237°
2026-04-20 19:13 31.22089 35.17652 3491 ft 202 kts 251°
2026-04-20 19:13 31.21690 35.16135 3271 ft 194 kts 262°
2026-04-20 19:13 31.21462 35.14596 3125 ft 187 kts 264°
2026-04-20 19:13 31.21207 35.13186 2912 ft 169 kts 262°
2026-04-20 19:14 31.20959 35.11900 2734 ft 152 kts 262°
2026-04-20 19:14 31.20735 35.10724 2657 ft 149 kts 261°
2026-04-20 19:14 31.20501 35.09581 2529 ft 148 kts 261°
2026-04-20 19:14 31.20284 35.08426 2409 ft 148 kts 262°
2026-04-20 19:15 31.20064 35.07260 2247 ft 147 kts 259°
2026-04-20 19:15 31.19864 35.06314 2070 ft 150 kts 259°
2026-04-20 19:15 31.19673 35.05329 1720 ft 137 kts 260°
2026-04-20 19:15 31.19467 35.04275 1439 ft 132 kts 258°
2026-04-20 19:16 31.19305 35.03427 1376 ft 2 kts 259°